sensor_id;sensor_type;location;lat;lon;timestamp;temperature;humidity
54082;DHT22;39986;50.770;0.266;2023-11-21T00:01:17;10.90;99.90
54082;DHT22;39986;50.770;0.266;2023-11-21T00:03:42;10.80;99.90
54082;DHT22;39986;50.770;0.266;2023-11-21T00:06:08;10.90;99.90
54082;DHT22;39986;50.770;0.266;2023-11-21T00:08:36;10.90;99.90
54082;DHT22;39986;50.770;0.266;2023-11-21T00:11:02;10.90;99.90
54082;DHT22;39986;50.770;0.266;2023-11-21T00:15:56;10.80;99.90
54082;DHT22;39986;50.770;0.266;2023-11-21T00:18:21;10.70;99.90
54082;DHT22;39986;50.770;0.266;2023-11-21T00:20:47;10.80;99.90
54082;DHT22;39986;50.770;0.266;2023-11-21T00:23:12;10.70;99.90
54082;DHT22;39986;50.770;0.266;2023-11-21T00:25:38;10.70;99.90
54082;DHT22;39986;50.770;0.266;2023-11-21T00:28:03;10.50;99.90
54082;DHT22;39986;50.770;0.266;2023-11-21T00:30:29;10.70;99.90
54082;DHT22;39986;50.770;0.266;2023-11-21T00:32:56;10.60;99.90
54082;DHT22;39986;50.770;0.266;2023-11-21T00:37:47;10.60;99.90
54082;DHT22;39986;50.770;0.266;2023-11-21T00:45:06;10.60;99.90
54082;DHT22;39986;50.770;0.266;2023-11-21T00:49:58;10.50;99.90
54082;DHT22;39986;50.770;0.266;2023-11-21T00:52:24;10.50;99.90
54082;DHT22;39986;50.770;0.266;2023-11-21T00:54:50;10.50;99.90
54082;DHT22;39986;50.770;0.266;2023-11-21T00:57:15;10.50;99.90
54082;DHT22;39986;50.770;0.266;2023-11-21T00:59:41;10.60;99.90
54082;DHT22;39986;50.770;0.266;2023-11-21T01:02:06;10.50;99.90
54082;DHT22;39986;50.770;0.266;2023-11-21T01:04:35;10.50;99.90
54082;DHT22;39986;50.770;0.266;2023-11-21T01:07:01;10.80;99.90
54082;DHT22;39986;50.770;0.266;2023-11-21T01:14:19;10.60;99.90
54082;DHT22;39986;50.770;0.266;2023-11-21T01:16:44;10.90;99.90
54082;DHT22;39986;50.770;0.266;2023-11-21T01:19:10;10.80;99.90
54082;DHT22;39986;50.770;0.266;2023-11-21T01:21:35;10.50;99.90
54082;DHT22;39986;50.770;0.266;2023-11-21T01:24:01;10.60;99.90
54082;DHT22;39986;50.770;0.266;2023-11-21T01:26:28;10.70;99.90
54082;DHT22;39986;50.770;0.266;2023-11-21T01:28:53;10.50;99.90
54082;DHT22;39986;50.770;0.266;2023-11-21T01:31:19;10.80;99.90
54082;DHT22;39986;50.770;0.266;2023-11-21T01:33:46;10.80;99.90
54082;DHT22;39986;50.770;0.266;2023-11-21T01:36:11;10.80;99.90
54082;DHT22;39986;50.770;0.266;2023-11-21T01:38:37;10.80;99.90
54082;DHT22;39986;50.770;0.266;2023-11-21T01:41:05;10.90;99.90
54082;DHT22;39986;50.770;0.266;2023-11-21T01:43:31;10.90;99.90
54082;DHT22;39986;50.770;0.266;2023-11-21T01:45:57;10.90;99.90
54082;DHT22;39986;50.770;0.266;2023-11-21T01:48:23;10.90;99.90
54082;DHT22;39986;50.770;0.266;2023-11-21T01:50:49;11.00;99.90
54082;DHT22;39986;50.770;0.266;2023-11-21T01:53:14;11.20;99.90
54082;DHT22;39986;50.770;0.266;2023-11-21T01:55:40;11.10;99.90
54082;DHT22;39986;50.770;0.266;2023-11-21T01:58:07;10.90;99.90
54082;DHT22;39986;50.770;0.266;2023-11-21T02:00:33;11.00;99.90
54082;DHT22;39986;50.770;0.266;2023-11-21T02:05:25;10.90;99.90
54082;DHT22;39986;50.770;0.266;2023-11-21T02:07:51;11.00;99.90
54082;DHT22;39986;50.770;0.266;2023-11-21T02:10:18;11.00;99.90
54082;DHT22;39986;50.770;0.266;2023-11-21T02:17:46;11.10;99.90
54082;DHT22;39986;50.770;0.266;2023-11-21T02:20:19;10.80;99.90
54082;DHT22;39986;50.770;0.266;2023-11-21T02:25:11;10.90;99.90
54082;DHT22;39986;50.770;0.266;2023-11-21T02:27:37;10.90;99.90
54082;DHT22;39986;50.770;0.266;2023-11-21T02:30:03;10.90;99.90
54082;DHT22;39986;50.770;0.266;2023-11-21T02:32:30;10.90;99.90
54082;DHT22;39986;50.770;0.266;2023-11-21T02:37:26;10.90;99.90
54082;DHT22;39986;50.770;0.266;2023-11-21T02:39:52;11.00;99.90
54082;DHT22;39986;50.770;0.266;2023-11-21T02:44:44;10.90;99.90
54082;DHT22;39986;50.770;0.266;2023-11-21T02:47:09;11.00;99.90
54082;DHT22;39986;50.770;0.266;2023-11-21T02:52:01;10.90;99.90
54082;DHT22;39986;50.770;0.266;2023-11-21T02:54:27;10.80;99.90
54082;DHT22;39986;50.770;0.266;2023-11-21T02:59:18;10.50;99.90
54082;DHT22;39986;50.770;0.266;2023-11-21T03:01:44;10.70;99.90
54082;DHT22;39986;50.770;0.266;2023-11-21T03:04:10;10.50;99.90
54082;DHT22;39986;50.770;0.266;2023-11-21T03:06:36;10.60;99.90
54082;DHT22;39986;50.770;0.266;2023-11-21T03:09:01;10.60;99.90
54082;DHT22;39986;50.770;0.266;2023-11-21T03:11:27;10.60;99.90
54082;DHT22;39986;50.770;0.266;2023-11-21T03:16:18;10.60;99.90
54082;DHT22;39986;50.770;0.266;2023-11-21T03:18:44;10.70;99.90
54082;DHT22;39986;50.770;0.266;2023-11-21T03:21:10;10.80;99.90
54082;DHT22;39986;50.770;0.266;2023-11-21T03:23:36;10.70;99.90
54082;DHT22;39986;50.770;0.266;2023-11-21T03:26:01;10.80;99.90
54082;DHT22;39986;50.770;0.266;2023-11-21T03:28:27;10.90;99.90
54082;DHT22;39986;50.770;0.266;2023-11-21T03:30:53;10.90;99.90
54082;DHT22;39986;50.770;0.266;2023-11-21T03:35:45;10.90;99.90
54082;DHT22;39986;50.770;0.266;2023-11-21T03:40:37;10.90;99.90
54082;DHT22;39986;50.770;0.266;2023-11-21T03:43:04;11.00;99.90
54082;DHT22;39986;50.770;0.266;2023-11-21T03:45:30;11.10;99.90
54082;DHT22;39986;50.770;0.266;2023-11-21T03:47:56;10.90;99.90
54082;DHT22;39986;50.770;0.266;2023-11-21T03:50:21;10.90;99.90
54082;DHT22;39986;50.770;0.266;2023-11-21T03:52:47;10.90;99.90
54082;DHT22;39986;50.770;0.266;2023-11-21T03:55:13;11.00;99.90
54082;DHT22;39986;50.770;0.266;2023-11-21T03:57:38;11.10;99.90
54082;DHT22;39986;50.770;0.266;2023-11-21T04:00:04;11.00;99.90
54082;DHT22;39986;50.770;0.266;2023-11-21T04:04:57;10.80;99.90
54082;DHT22;39986;50.770;0.266;2023-11-21T04:07:22;11.10;99.90
54082;DHT22;39986;50.770;0.266;2023-11-21T04:12:14;11.10;99.90
54082;DHT22;39986;50.770;0.266;2023-11-21T04:14:39;11.20;99.90
54082;DHT22;39986;50.770;0.266;2023-11-21T04:17:05;11.10;99.90
54082;DHT22;39986;50.770;0.266;2023-11-21T04:19:30;11.20;99.90
54082;DHT22;39986;50.770;0.266;2023-11-21T04:21:56;11.10;99.90
54082;DHT22;39986;50.770;0.266;2023-11-21T04:24:21;11.20;99.90
54082;DHT22;39986;50.770;0.266;2023-11-21T04:26:47;11.30;99.90
54082;DHT22;39986;50.770;0.266;2023-11-21T04:29:12;11.30;99.90
54082;DHT22;39986;50.770;0.266;2023-11-21T04:31:38;11.40;99.90
54082;DHT22;39986;50.770;0.266;2023-11-21T04:38:56;11.40;99.90
54082;DHT22;39986;50.770;0.266;2023-11-21T04:41:22;11.20;99.90
54082;DHT22;39986;50.770;0.266;2023-11-21T04:48:40;11.20;99.90
54082;DHT22;39986;50.770;0.266;2023-11-21T04:51:05;11.40;99.90
54082;DHT22;39986;50.770;0.266;2023-11-21T04:53:32;11.30;99.90
54082;DHT22;39986;50.770;0.266;2023-11-21T04:55:57;11.50;99.90
54082;DHT22;39986;50.770;0.266;2023-11-21T04:58:24;11.40;99.90
54082;DHT22;39986;50.770;0.266;2023-11-21T05:00:49;11.20;99.90
54082;DHT22;39986;50.770;0.266;2023-11-21T05:03:15;11.40;99.90
54082;DHT22;39986;50.770;0.266;2023-11-21T05:05:40;11.40;99.90
54082;DHT22;39986;50.770;0.266;2023-11-21T05:08:06;11.50;99.90
54082;DHT22;39986;50.770;0.266;2023-11-21T05:10:31;11.20;99.90
54082;DHT22;39986;50.770;0.266;2023-11-21T05:12:57;11.50;99.90
54082;DHT22;39986;50.770;0.266;2023-11-21T05:15:23;11.40;99.90
54082;DHT22;39986;50.770;0.266;2023-11-21T05:20:15;11.40;99.90
54082;DHT22;39986;50.770;0.266;2023-11-21T05:22:45;11.30;99.90
54082;DHT22;39986;50.770;0.266;2023-11-21T05:25:11;11.30;99.90
54082;DHT22;39986;50.770;0.266;2023-11-21T05:27:37;11.20;99.90
54082;DHT22;39986;50.770;0.266;2023-11-21T05:32:30;11.30;99.90
54082;DHT22;39986;50.770;0.266;2023-11-21T05:34:56;11.40;99.90
54082;DHT22;39986;50.770;0.266;2023-11-21T05:37:22;11.30;99.90
54082;DHT22;39986;50.770;0.266;2023-11-21T05:39:48;11.30;99.90
54082;DHT22;39986;50.770;0.266;2023-11-21T05:42:14;11.20;99.90
54082;DHT22;39986;50.770;0.266;2023-11-21T05:47:06;11.30;99.90
54082;DHT22;39986;50.770;0.266;2023-11-21T05:49:32;11.30;99.90
54082;DHT22;39986;50.770;0.266;2023-11-21T05:54:25;11.20;99.90
54082;DHT22;39986;50.770;0.266;2023-11-21T05:56:50;11.30;99.90
54082;DHT22;39986;50.770;0.266;2023-11-21T05:59:16;11.20;99.90
54082;DHT22;39986;50.770;0.266;2023-11-21T06:01:41;11.20;99.90
54082;DHT22;39986;50.770;0.266;2023-11-21T06:04:07;11.30;99.90
54082;DHT22;39986;50.770;0.266;2023-11-21T06:09:01;11.30;99.90
54082;DHT22;39986;50.770;0.266;2023-11-21T06:13:53;11.20;99.90
54082;DHT22;39986;50.770;0.266;2023-11-21T06:16:19;11.30;99.90
54082;DHT22;39986;50.770;0.266;2023-11-21T06:18:45;11.30;99.90
54082;DHT22;39986;50.770;0.266;2023-11-21T06:21:11;11.30;99.90
54082;DHT22;39986;50.770;0.266;2023-11-21T06:23:36;11.30;99.90
54082;DHT22;39986;50.770;0.266;2023-11-21T06:26:02;11.20;99.90
54082;DHT22;39986;50.770;0.266;2023-11-21T06:28:29;11.30;99.90
54082;DHT22;39986;50.770;0.266;2023-11-21T06:30:55;11.20;99.90
54082;DHT22;39986;50.770;0.266;2023-11-21T06:33:21;11.20;99.90
54082;DHT22;39986;50.770;0.266;2023-11-21T06:35:47;11.20;99.90
54082;DHT22;39986;50.770;0.266;2023-11-21T06:40:38;11.20;99.90
54082;DHT22;39986;50.770;0.266;2023-11-21T06:43:04;11.30;99.90
54082;DHT22;39986;50.770;0.266;2023-11-21T06:45:32;11.20;99.90
54082;DHT22;39986;50.770;0.266;2023-11-21T06:47:59;11.20;99.90
54082;DHT22;39986;50.770;0.266;2023-11-21T06:50:25;11.20;99.90
54082;DHT22;39986;50.770;0.266;2023-11-21T06:55:16;11.10;99.90
54082;DHT22;39986;50.770;0.266;2023-11-21T06:57:42;11.20;99.90
54082;DHT22;39986;50.770;0.266;2023-11-21T07:02:34;11.00;99.90
54082;DHT22;39986;50.770;0.266;2023-11-21T07:05:00;11.10;99.90
54082;DHT22;39986;50.770;0.266;2023-11-21T07:07:26;11.20;99.90
54082;DHT22;39986;50.770;0.266;2023-11-21T07:09:52;11.10;99.90
54082;DHT22;39986;50.770;0.266;2023-11-21T07:12:17;11.00;99.90
54082;DHT22;39986;50.770;0.266;2023-11-21T07:14:43;11.10;99.90
54082;DHT22;39986;50.770;0.266;2023-11-21T07:17:10;11.00;99.90
54082;DHT22;39986;50.770;0.266;2023-11-21T07:19:37;11.10;99.90
54082;DHT22;39986;50.770;0.266;2023-11-21T07:22:03;11.00;99.90
54082;DHT22;39986;50.770;0.266;2023-11-21T07:24:30;11.00;99.90
54082;DHT22;39986;50.770;0.266;2023-11-21T07:26:57;11.10;99.90
54082;DHT22;39986;50.770;0.266;2023-11-21T07:31:51;11.00;99.90
54082;DHT22;39986;50.770;0.266;2023-11-21T07:34:16;11.10;99.90
54082;DHT22;39986;50.770;0.266;2023-11-21T07:36:42;11.00;99.90
54082;DHT22;39986;50.770;0.266;2023-11-21T07:39:07;11.10;99.90
54082;DHT22;39986;50.770;0.266;2023-11-21T07:41:33;11.20;99.90
54082;DHT22;39986;50.770;0.266;2023-11-21T07:43:59;11.00;99.90
54082;DHT22;39986;50.770;0.266;2023-11-21T07:56:10;11.20;99.90
54082;DHT22;39986;50.770;0.266;2023-11-21T07:58:36;11.20;99.90
54082;DHT22;39986;50.770;0.266;2023-11-21T08:10:49;11.20;99.90
54082;DHT22;39986;50.770;0.266;2023-11-21T08:27:58;11.50;99.90
54082;DHT22;39986;50.770;0.266;2023-11-21T08:40:11;11.50;99.90
54082;DHT22;39986;50.770;0.266;2023-11-21T08:42:41;11.40;99.90
54082;DHT22;39986;50.770;0.266;2023-11-21T08:47:34;11.30;99.90
54082;DHT22;39986;50.770;0.266;2023-11-21T08:50:02;11.30;99.90
54082;DHT22;39986;50.770;0.266;2023-11-21T08:52:27;11.30;99.90
54082;DHT22;39986;50.770;0.266;2023-11-21T08:59:48;11.40;99.90
54082;DHT22;39986;50.770;0.266;2023-11-21T09:02:13;11.30;99.90
54082;DHT22;39986;50.770;0.266;2023-11-21T09:07:05;11.40;99.90
54082;DHT22;39986;50.770;0.266;2023-11-21T09:11:56;11.20;99.90
54082;DHT22;39986;50.770;0.266;2023-11-21T09:19:15;11.40;99.90
54082;DHT22;39986;50.770;0.266;2023-11-21T09:24:07;11.50;99.90
54082;DHT22;39986;50.770;0.266;2023-11-21T09:26:34;11.50;99.90
54082;DHT22;39986;50.770;0.266;2023-11-21T09:33:53;11.50;99.90
54082;DHT22;39986;50.770;0.266;2023-11-21T09:36:18;11.40;99.90
54082;DHT22;39986;50.770;0.266;2023-11-21T09:43:37;11.80;99.90
54082;DHT22;39986;50.770;0.266;2023-11-21T09:48:29;11.60;99.90
54082;DHT22;39986;50.770;0.266;2023-11-21T09:50:55;11.60;99.90
54082;DHT22;39986;50.770;0.266;2023-11-21T09:55:51;11.50;99.90
54082;DHT22;39986;50.770;0.266;2023-11-21T09:58:17;11.60;99.90
54082;DHT22;39986;50.770;0.266;2023-11-21T10:08:09;11.60;99.90
54082;DHT22;39986;50.770;0.266;2023-11-21T10:17:54;11.90;99.90
54082;DHT22;39986;50.770;0.266;2023-11-21T10:20:20;12.00;99.90
54082;DHT22;39986;50.770;0.266;2023-11-21T10:22:46;12.00;99.90
54082;DHT22;39986;50.770;0.266;2023-11-21T10:25:12;12.10;99.90
54082;DHT22;39986;50.770;0.266;2023-11-21T10:32:31;12.20;99.90
54082;DHT22;39986;50.770;0.266;2023-11-21T10:34:58;12.30;99.90
54082;DHT22;39986;50.770;0.266;2023-11-21T10:37:25;12.20;99.90
54082;DHT22;39986;50.770;0.266;2023-11-21T10:39:59;12.10;99.90
54082;DHT22;39986;50.770;0.266;2023-11-21T10:42:24;12.30;99.90
54082;DHT22;39986;50.770;0.266;2023-11-21T10:47:17;12.30;99.90
54082;DHT22;39986;50.770;0.266;2023-11-21T10:52:13;12.60;99.90
54082;DHT22;39986;50.770;0.266;2023-11-21T10:54:45;12.90;99.90
54082;DHT22;39986;50.770;0.266;2023-11-21T10:57:11;13.70;99.90
54082;DHT22;39986;50.770;0.266;2023-11-21T11:02:27;16.70;99.90
54082;DHT22;39986;50.770;0.266;2023-11-21T11:04:57;17.80;99.90
54082;DHT22;39986;50.770;0.266;2023-11-21T11:07:27;18.40;99.90
54082;DHT22;39986;50.770;0.266;2023-11-21T11:09:54;19.80;99.90
54082;DHT22;39986;50.770;0.266;2023-11-21T11:12:20;20.10;99.90
54082;DHT22;39986;50.770;0.266;2023-11-21T11:14:46;20.90;99.90
54082;DHT22;39986;50.770;0.266;2023-11-21T11:17:13;22.50;99.90
54082;DHT22;39986;50.770;0.266;2023-11-21T11:19:39;24.20;99.90
54082;DHT22;39986;50.770;0.266;2023-11-21T11:27:13;25.50;99.90
54082;DHT22;39986;50.770;0.266;2023-11-21T11:29:44;24.90;99.90
54082;DHT22;39986;50.770;0.266;2023-11-21T11:35:04;25.00;99.90
54082;DHT22;39986;50.770;0.266;2023-11-21T11:37:32;25.20;99.90
54082;DHT22;39986;50.770;0.266;2023-11-21T11:39:57;25.20;99.90
54082;DHT22;39986;50.770;0.266;2023-11-21T11:42:23;28.00;99.90
54082;DHT22;39986;50.770;0.266;2023-11-21T11:44:49;24.00;99.90
54082;DHT22;39986;50.770;0.266;2023-11-21T11:47:37;22.00;99.90
54082;DHT22;39986;50.770;0.266;2023-11-21T11:50:08;20.70;99.90
54082;DHT22;39986;50.770;0.266;2023-11-21T11:52:46;19.10;99.90
54082;DHT22;39986;50.770;0.266;2023-11-21T11:55:13;17.90;99.90
54082;DHT22;39986;50.770;0.266;2023-11-21T11:57:40;17.00;99.90
54082;DHT22;39986;50.770;0.266;2023-11-21T12:02:53;16.10;99.90
54082;DHT22;39986;50.770;0.266;2023-11-21T12:05:20;15.70;99.90
54082;DHT22;39986;50.770;0.266;2023-11-21T12:07:49;15.20;99.90
54082;DHT22;39986;50.770;0.266;2023-11-21T12:10:17;14.80;99.90
54082;DHT22;39986;50.770;0.266;2023-11-21T12:12:46;14.80;99.90
54082;DHT22;39986;50.770;0.266;2023-11-21T12:15:12;14.70;99.90
54082;DHT22;39986;50.770;0.266;2023-11-21T12:17:39;14.30;99.90
54082;DHT22;39986;50.770;0.266;2023-11-21T12:22:31;14.10;99.90
54082;DHT22;39986;50.770;0.266;2023-11-21T12:24:57;14.10;99.90
54082;DHT22;39986;50.770;0.266;2023-11-21T12:27:23;13.90;99.90
54082;DHT22;39986;50.770;0.266;2023-11-21T12:29:49;13.80;99.90
54082;DHT22;39986;50.770;0.266;2023-11-21T12:32:14;13.80;99.90
54082;DHT22;39986;50.770;0.266;2023-11-21T12:34:41;13.80;99.90
54082;DHT22;39986;50.770;0.266;2023-11-21T12:37:07;13.70;99.90
54082;DHT22;39986;50.770;0.266;2023-11-21T12:39:32;13.90;99.90
54082;DHT22;39986;50.770;0.266;2023-11-21T12:41:58;13.60;99.90
54082;DHT22;39986;50.770;0.266;2023-11-21T12:44:24;13.70;99.90
54082;DHT22;39986;50.770;0.266;2023-11-21T12:46:49;13.80;99.90
54082;DHT22;39986;50.770;0.266;2023-11-21T12:51:46;13.90;99.90
54082;DHT22;39986;50.770;0.266;2023-11-21T12:54:12;13.90;99.90
54082;DHT22;39986;50.770;0.266;2023-11-21T12:56:38;13.80;99.90
54082;DHT22;39986;50.770;0.266;2023-11-21T12:59:04;13.90;99.90
54082;DHT22;39986;50.770;0.266;2023-11-21T13:06:23;13.80;99.90
54082;DHT22;39986;50.770;0.266;2023-11-21T13:16:09;13.50;99.90
54082;DHT22;39986;50.770;0.266;2023-11-21T13:18:35;13.50;99.90
54082;DHT22;39986;50.770;0.266;2023-11-21T13:21:01;13.60;99.90
54082;DHT22;39986;50.770;0.266;2023-11-21T13:23:37;13.60;99.90
54082;DHT22;39986;50.770;0.266;2023-11-21T13:28:30;13.80;99.90
54082;DHT22;39986;50.770;0.266;2023-11-21T13:40:55;13.80;99.90
54082;DHT22;39986;50.770;0.266;2023-11-21T13:58:14;13.60;99.90
54082;DHT22;39986;50.770;0.266;2023-11-21T14:08:19;13.20;99.90
54082;DHT22;39986;50.770;0.266;2023-11-21T14:10:49;13.20;99.90
54082;DHT22;39986;50.770;0.266;2023-11-21T14:13:18;13.20;99.90
54082;DHT22;39986;50.770;0.266;2023-11-21T14:15:48;13.10;99.90
54082;DHT22;39986;50.770;0.266;2023-11-21T14:18:16;13.10;99.90
54082;DHT22;39986;50.770;0.266;2023-11-21T14:20:43;12.90;99.90
54082;DHT22;39986;50.770;0.266;2023-11-21T14:25:36;13.00;99.90
54082;DHT22;39986;50.770;0.266;2023-11-21T14:33:00;13.80;99.90
54082;DHT22;39986;50.770;0.266;2023-11-21T14:35:26;14.20;99.90
54082;DHT22;39986;50.770;0.266;2023-11-21T14:40:18;16.50;99.90
54082;DHT22;39986;50.770;0.266;2023-11-21T14:42:47;14.40;99.90
54082;DHT22;39986;50.770;0.266;2023-11-21T14:45:13;14.20;99.90
54082;DHT22;39986;50.770;0.266;2023-11-21T14:47:42;14.10;99.90
54082;DHT22;39986;50.770;0.266;2023-11-21T14:50:13;13.80;99.90
54082;DHT22;39986;50.770;0.266;2023-11-21T14:55:24;13.80;99.90
54082;DHT22;39986;50.770;0.266;2023-11-21T14:58:18;13.90;99.90
54082;DHT22;39986;50.770;0.266;2023-11-21T15:35:28;12.90;99.90
54082;DHT22;39986;50.770;0.266;2023-11-21T15:40:23;12.80;99.90
54082;DHT22;39986;50.770;0.266;2023-11-21T15:42:48;12.70;99.90
54082;DHT22;39986;50.770;0.266;2023-11-21T15:45:15;12.70;99.90
54082;DHT22;39986;50.770;0.266;2023-11-21T15:47:43;12.70;99.90
54082;DHT22;39986;50.770;0.266;2023-11-21T15:50:09;12.60;99.90
54082;DHT22;39986;50.770;0.266;2023-11-21T15:55:01;12.50;99.90
54082;DHT22;39986;50.770;0.266;2023-11-21T15:57:27;12.40;99.90
54082;DHT22;39986;50.770;0.266;2023-11-21T16:02:19;12.30;99.90
54082;DHT22;39986;50.770;0.266;2023-11-21T16:04:44;12.40;99.90
54082;DHT22;39986;50.770;0.266;2023-11-21T16:14:30;11.90;99.90
54082;DHT22;39986;50.770;0.266;2023-11-21T16:21:52;11.90;99.90
54082;DHT22;39986;50.770;0.266;2023-11-21T16:26:44;11.80;99.90
54082;DHT22;39986;50.770;0.266;2023-11-21T16:29:10;11.90;99.90
54082;DHT22;39986;50.770;0.266;2023-11-21T16:31:40;11.80;99.90
54082;DHT22;39986;50.770;0.266;2023-11-21T16:34:11;11.90;99.90
54082;DHT22;39986;50.770;0.266;2023-11-21T16:36:36;11.70;99.90
54082;DHT22;39986;50.770;0.266;2023-11-21T16:39:02;11.70;99.90
54082;DHT22;39986;50.770;0.266;2023-11-21T16:46:20;11.70;99.90
54082;DHT22;39986;50.770;0.266;2023-11-21T16:48:46;11.50;99.90
54082;DHT22;39986;50.770;0.266;2023-11-21T16:51:14;11.70;99.90
54082;DHT22;39986;50.770;0.266;2023-11-21T16:53:42;11.70;99.90
54082;DHT22;39986;50.770;0.266;2023-11-21T16:56:08;11.70;99.90
54082;DHT22;39986;50.770;0.266;2023-11-21T16:58:33;11.70;99.90
54082;DHT22;39986;50.770;0.266;2023-11-21T17:03:25;11.50;99.90
54082;DHT22;39986;50.770;0.266;2023-11-21T17:05:52;11.60;99.90
54082;DHT22;39986;50.770;0.266;2023-11-21T17:08:17;11.60;99.90
54082;DHT22;39986;50.770;0.266;2023-11-21T17:10:47;11.70;99.90
54082;DHT22;39986;50.770;0.266;2023-11-21T17:13:17;11.60;99.90
54082;DHT22;39986;50.770;0.266;2023-11-21T17:15:45;11.50;99.90
54082;DHT22;39986;50.770;0.266;2023-11-21T17:18:12;11.50;99.90
54082;DHT22;39986;50.770;0.266;2023-11-21T17:20:37;11.50;99.90
54082;DHT22;39986;50.770;0.266;2023-11-21T17:23:03;11.50;99.90
54082;DHT22;39986;50.770;0.266;2023-11-21T17:30:21;11.40;99.90
54082;DHT22;39986;50.770;0.266;2023-11-21T17:32:47;11.40;99.90
54082;DHT22;39986;50.770;0.266;2023-11-21T17:37:39;11.40;99.90
54082;DHT22;39986;50.770;0.266;2023-11-21T17:42:32;11.40;99.90
54082;DHT22;39986;50.770;0.266;2023-11-21T17:44:57;11.30;99.90
54082;DHT22;39986;50.770;0.266;2023-11-21T17:52:18;11.30;99.90
54082;DHT22;39986;50.770;0.266;2023-11-21T17:54:45;11.10;99.90
54082;DHT22;39986;50.770;0.266;2023-11-21T18:02:05;11.00;99.90
54082;DHT22;39986;50.770;0.266;2023-11-21T18:04:31;10.80;99.90
54082;DHT22;39986;50.770;0.266;2023-11-21T18:09:24;10.60;99.90
54082;DHT22;39986;50.770;0.266;2023-11-21T18:14:15;10.70;99.90
54082;DHT22;39986;50.770;0.266;2023-11-21T18:16:41;10.60;99.90
54082;DHT22;39986;50.770;0.266;2023-11-21T18:19:07;10.60;99.90
54082;DHT22;39986;50.770;0.266;2023-11-21T18:23:59;10.80;99.90
54082;DHT22;39986;50.770;0.266;2023-11-21T18:28:51;10.60;99.90
54082;DHT22;39986;50.770;0.266;2023-11-21T18:31:17;8.90;99.90
54082;DHT22;39986;50.770;0.266;2023-11-21T18:33:42;14.80;99.90
54082;DHT22;39986;50.770;0.266;2023-11-21T18:36:09;10.80;99.90
54082;DHT22;39986;50.770;0.266;2023-11-21T18:38:34;10.80;99.90
54082;DHT22;39986;50.770;0.266;2023-11-21T18:41:01;10.70;99.90
54082;DHT22;39986;50.770;0.266;2023-11-21T18:43:27;10.70;99.90
54082;DHT22;39986;50.770;0.266;2023-11-21T18:45:52;10.80;99.90
54082;DHT22;39986;50.770;0.266;2023-11-21T18:48:19;10.70;99.90
54082;DHT22;39986;50.770;0.266;2023-11-21T18:53:13;10.70;99.90
54082;DHT22;39986;50.770;0.266;2023-11-21T18:58:07;10.70;99.90
54082;DHT22;39986;50.770;0.266;2023-11-21T19:00:33;10.70;99.90
54082;DHT22;39986;50.770;0.266;2023-11-21T19:02:58;10.70;99.90
54082;DHT22;39986;50.770;0.266;2023-11-21T19:07:50;10.70;99.90
54082;DHT22;39986;50.770;0.266;2023-11-21T19:10:15;10.80;99.90
54082;DHT22;39986;50.770;0.266;2023-11-21T19:12:44;10.80;99.90
54082;DHT22;39986;50.770;0.266;2023-11-21T19:15:09;10.60;99.90
54082;DHT22;39986;50.770;0.266;2023-11-21T19:22:30;10.60;99.90
54082;DHT22;39986;50.770;0.266;2023-11-21T19:24:56;10.60;99.90
54082;DHT22;39986;50.770;0.266;2023-11-21T19:27:21;12.50;99.90
54082;DHT22;39986;50.770;0.266;2023-11-21T19:29:47;10.60;99.90
54082;DHT22;39986;50.770;0.266;2023-11-21T19:32:13;10.60;99.90
54082;DHT22;39986;50.770;0.266;2023-11-21T19:34:38;10.50;99.90
54082;DHT22;39986;50.770;0.266;2023-11-21T19:37:04;10.50;99.90
54082;DHT22;39986;50.770;0.266;2023-11-21T19:39:29;10.40;99.90
54082;DHT22;39986;50.770;0.266;2023-11-21T19:41:55;10.40;99.90
54082;DHT22;39986;50.770;0.266;2023-11-21T19:44:20;10.30;99.90
54082;DHT22;39986;50.770;0.266;2023-11-21T19:46:46;10.40;99.90
54082;DHT22;39986;50.770;0.266;2023-11-21T19:49:12;10.50;99.90
54082;DHT22;39986;50.770;0.266;2023-11-21T19:54:05;10.20;99.90
54082;DHT22;39986;50.770;0.266;2023-11-21T19:58:57;10.40;99.90
54082;DHT22;39986;50.770;0.266;2023-11-21T20:01:22;10.20;99.90
54082;DHT22;39986;50.770;0.266;2023-11-21T20:03:48;10.30;99.90
54082;DHT22;39986;50.770;0.266;2023-11-21T20:06:14;10.20;99.90
54082;DHT22;39986;50.770;0.266;2023-11-21T20:08:39;10.20;99.90
54082;DHT22;39986;50.770;0.266;2023-11-21T20:11:05;10.40;99.90
54082;DHT22;39986;50.770;0.266;2023-11-21T20:13:31;10.00;99.90
54082;DHT22;39986;50.770;0.266;2023-11-21T20:15:56;9.80;99.90
54082;DHT22;39986;50.770;0.266;2023-11-21T20:18:22;9.80;99.90
54082;DHT22;39986;50.770;0.266;2023-11-21T20:20:51;9.80;99.90
54082;DHT22;39986;50.770;0.266;2023-11-21T20:23:16;9.60;99.90
54082;DHT22;39986;50.770;0.266;2023-11-21T20:25:44;9.50;99.90
54082;DHT22;39986;50.770;0.266;2023-11-21T20:28:10;9.50;99.90
54082;DHT22;39986;50.770;0.266;2023-11-21T20:30:35;9.40;99.90
54082;DHT22;39986;50.770;0.266;2023-11-21T20:33:01;9.50;99.90
54082;DHT22;39986;50.770;0.266;2023-11-21T20:35:31;9.40;99.90
54082;DHT22;39986;50.770;0.266;2023-11-21T20:38:04;9.30;99.90
54082;DHT22;39986;50.770;0.266;2023-11-21T20:40:30;9.30;99.90
54082;DHT22;39986;50.770;0.266;2023-11-21T20:45:31;9.20;99.90
54082;DHT22;39986;50.770;0.266;2023-11-21T20:47:57;9.50;99.90
54082;DHT22;39986;50.770;0.266;2023-11-21T20:50:22;9.40;99.90
54082;DHT22;39986;50.770;0.266;2023-11-21T20:52:48;9.30;99.90
54082;DHT22;39986;50.770;0.266;2023-11-21T20:55:14;9.30;99.90
54082;DHT22;39986;50.770;0.266;2023-11-21T20:57:40;9.30;99.90
54082;DHT22;39986;50.770;0.266;2023-11-21T21:02:35;9.40;99.90
54082;DHT22;39986;50.770;0.266;2023-11-21T21:05:01;9.30;99.90
54082;DHT22;39986;50.770;0.266;2023-11-21T21:07:27;9.30;99.90
54082;DHT22;39986;50.770;0.266;2023-11-21T21:09:53;9.40;99.90
54082;DHT22;39986;50.770;0.266;2023-11-21T21:12:18;9.20;99.90
54082;DHT22;39986;50.770;0.266;2023-11-21T21:14:44;9.10;99.90
54082;DHT22;39986;50.770;0.266;2023-11-21T21:19:35;9.20;99.90
54082;DHT22;39986;50.770;0.266;2023-11-21T21:24:27;9.30;99.90
54082;DHT22;39986;50.770;0.266;2023-11-21T21:26:53;9.00;99.90
54082;DHT22;39986;50.770;0.266;2023-11-21T21:29:19;9.10;99.90
54082;DHT22;39986;50.770;0.266;2023-11-21T21:31:46;9.10;99.90
54082;DHT22;39986;50.770;0.266;2023-11-21T21:34:12;9.20;99.90
54082;DHT22;39986;50.770;0.266;2023-11-21T21:36:39;9.20;99.90
54082;DHT22;39986;50.770;0.266;2023-11-21T21:39:08;9.30;99.90
54082;DHT22;39986;50.770;0.266;2023-11-21T21:41:33;9.20;99.90
54082;DHT22;39986;50.770;0.266;2023-11-21T21:43:59;9.10;99.90
54082;DHT22;39986;50.770;0.266;2023-11-21T21:46:24;9.20;99.90
54082;DHT22;39986;50.770;0.266;2023-11-21T21:48:49;9.20;99.90
54082;DHT22;39986;50.770;0.266;2023-11-21T21:51:16;9.10;99.90